sensor_id;sensor_type;location;lat;lon;timestamp;P1;durP1;ratioP1;P2;durP2;ratioP2
67063;SDS011;58476;48.072;11.970;2023-09-19T00:01:05;1.02;;;0.80;;
67063;SDS011;58476;48.072;11.970;2023-09-19T00:03:30;1.67;;;1.00;;
67063;SDS011;58476;48.072;11.970;2023-09-19T00:05:57;1.35;;;0.90;;
67063;SDS011;58476;48.072;11.970;2023-09-19T00:08:23;2.30;;;0.90;;
67063;SDS011;58476;48.072;11.970;2023-09-19T00:10:48;1.08;;;0.90;;
67063;SDS011;58476;48.072;11.970;2023-09-19T00:13:13;2.03;;;1.00;;
67063;SDS011;58476;48.072;11.970;2023-09-19T00:15:39;1.33;;;0.90;;
67063;SDS011;58476;48.072;11.970;2023-09-19T00:18:09;1.15;;;1.00;;
67063;SDS011;58476;48.072;11.970;2023-09-19T00:20:37;1.45;;;1.10;;
67063;SDS011;58476;48.072;11.970;2023-09-19T00:23:03;0.90;;;0.90;;
67063;SDS011;58476;48.072;11.970;2023-09-19T00:25:29;0.75;;;0.73;;
67063;SDS011;58476;48.072;11.970;2023-09-19T00:27:54;2.00;;;1.00;;
67063;SDS011;58476;48.072;11.970;2023-09-19T00:30:19;0.93;;;0.90;;
67063;SDS011;58476;48.072;11.970;2023-09-19T00:32:45;1.52;;;1.10;;
67063;SDS011;58476;48.072;11.970;2023-09-19T00:35:15;1.00;;;0.90;;
67063;SDS011;58476;48.072;11.970;2023-09-19T00:37:41;0.88;;;0.70;;
67063;SDS011;58476;48.072;11.970;2023-09-19T00:40:07;1.00;;;0.90;;
67063;SDS011;58476;48.072;11.970;2023-09-19T00:42:33;0.98;;;0.80;;
67063;SDS011;58476;48.072;11.970;2023-09-19T00:44:59;1.38;;;1.10;;
67063;SDS011;58476;48.072;11.970;2023-09-19T00:47:24;1.25;;;0.77;;
67063;SDS011;58476;48.072;11.970;2023-09-19T00:49:50;0.90;;;0.80;;
67063;SDS011;58476;48.072;11.970;2023-09-19T00:52:15;1.80;;;1.17;;
67063;SDS011;58476;48.072;11.970;2023-09-19T00:54:41;1.15;;;0.82;;
67063;SDS011;58476;48.072;11.970;2023-09-19T00:57:06;2.58;;;0.93;;
67063;SDS011;58476;48.072;11.970;2023-09-19T00:59:32;1.40;;;0.90;;
67063;SDS011;58476;48.072;11.970;2023-09-19T01:01:57;1.10;;;0.90;;
67063;SDS011;58476;48.072;11.970;2023-09-19T01:04:22;1.92;;;1.10;;
67063;SDS011;58476;48.072;11.970;2023-09-19T01:06:48;0.75;;;0.75;;
67063;SDS011;58476;48.072;11.970;2023-09-19T01:09:14;1.27;;;0.85;;
67063;SDS011;58476;48.072;11.970;2023-09-19T01:11:42;1.70;;;1.00;;
67063;SDS011;58476;48.072;11.970;2023-09-19T01:17:09;0.80;;;0.80;;
67063;SDS011;58476;48.072;11.970;2023-09-19T01:22:33;1.70;;;0.90;;
67063;SDS011;58476;48.072;11.970;2023-09-19T01:30:52;1.08;;;1.00;;
67063;SDS011;58476;48.072;11.970;2023-09-19T01:33:21;1.65;;;1.00;;
67063;SDS011;58476;48.072;11.970;2023-09-19T01:35:48;1.30;;;1.00;;
67063;SDS011;58476;48.072;11.970;2023-09-19T01:38:13;0.77;;;0.77;;
67063;SDS011;58476;48.072;11.970;2023-09-19T01:40:41;0.75;;;0.75;;
67063;SDS011;58476;48.072;11.970;2023-09-19T01:45:46;1.60;;;0.80;;
67063;SDS011;58476;48.072;11.970;2023-09-19T01:51:07;3.10;;;0.80;;
67063;SDS011;58476;48.072;11.970;2023-09-19T01:53:36;2.25;;;0.82;;
67063;SDS011;58476;48.072;11.970;2023-09-19T01:56:12;0.95;;;0.85;;
67063;SDS011;58476;48.072;11.970;2023-09-19T01:58:45;1.90;;;0.90;;
67063;SDS011;58476;48.072;11.970;2023-09-19T02:01:16;1.45;;;0.93;;
67063;SDS011;58476;48.072;11.970;2023-09-19T02:03:47;1.23;;;0.82;;
67063;SDS011;58476;48.072;11.970;2023-09-19T02:06:17;1.98;;;1.20;;
67063;SDS011;58476;48.072;11.970;2023-09-19T02:08:43;2.60;;;0.80;;
67063;SDS011;58476;48.072;11.970;2023-09-19T02:11:09;1.60;;;1.17;;
67063;SDS011;58476;48.072;11.970;2023-09-19T02:13:34;1.10;;;1.00;;
67063;SDS011;58476;48.072;11.970;2023-09-19T02:16:00;1.63;;;0.90;;
67063;SDS011;58476;48.072;11.970;2023-09-19T02:18:25;1.05;;;0.95;;
67063;SDS011;58476;48.072;11.970;2023-09-19T02:20:52;1.42;;;0.80;;
67063;SDS011;58476;48.072;11.970;2023-09-19T02:23:18;0.90;;;0.90;;
67063;SDS011;58476;48.072;11.970;2023-09-19T02:25:51;0.80;;;0.80;;
67063;SDS011;58476;48.072;11.970;2023-09-19T02:28:17;2.38;;;0.80;;
67063;SDS011;58476;48.072;11.970;2023-09-19T02:30:42;1.42;;;0.80;;
67063;SDS011;58476;48.072;11.970;2023-09-19T02:33:07;2.10;;;1.10;;
67063;SDS011;58476;48.072;11.970;2023-09-19T02:35:33;1.48;;;1.10;;
67063;SDS011;58476;48.072;11.970;2023-09-19T02:38:00;0.88;;;0.88;;
67063;SDS011;58476;48.072;11.970;2023-09-19T02:40:25;1.50;;;1.10;;
67063;SDS011;58476;48.072;11.970;2023-09-19T02:42:53;0.80;;;0.80;;
67063;SDS011;58476;48.072;11.970;2023-09-19T02:45:22;1.00;;;0.90;;
67063;SDS011;58476;48.072;11.970;2023-09-19T02:47:47;0.75;;;0.70;;
67063;SDS011;58476;48.072;11.970;2023-09-19T02:50:14;1.10;;;0.90;;
67063;SDS011;58476;48.072;11.970;2023-09-19T02:52:44;0.80;;;0.80;;
67063;SDS011;58476;48.072;11.970;2023-09-19T02:55:11;0.80;;;0.80;;
67063;SDS011;58476;48.072;11.970;2023-09-19T02:57:37;0.85;;;0.80;;
67063;SDS011;58476;48.072;11.970;2023-09-19T03:00:03;1.17;;;0.90;;
67063;SDS011;58476;48.072;11.970;2023-09-19T03:02:29;0.98;;;0.82;;
67063;SDS011;58476;48.072;11.970;2023-09-19T03:04:54;1.27;;;0.90;;
67063;SDS011;58476;48.072;11.970;2023-09-19T03:07:20;1.00;;;0.80;;
67063;SDS011;58476;48.072;11.970;2023-09-19T03:09:45;0.73;;;0.73;;
67063;SDS011;58476;48.072;11.970;2023-09-19T03:12:10;1.27;;;0.95;;
67063;SDS011;58476;48.072;11.970;2023-09-19T03:14:37;0.95;;;0.82;;
67063;SDS011;58476;48.072;11.970;2023-09-19T03:17:03;1.38;;;1.00;;
67063;SDS011;58476;48.072;11.970;2023-09-19T03:19:28;1.33;;;0.80;;
67063;SDS011;58476;48.072;11.970;2023-09-19T03:21:56;1.35;;;0.80;;
67063;SDS011;58476;48.072;11.970;2023-09-19T03:24:22;1.00;;;0.80;;
67063;SDS011;58476;48.072;11.970;2023-09-19T03:26:47;0.93;;;0.90;;
67063;SDS011;58476;48.072;11.970;2023-09-19T03:29:13;1.00;;;0.90;;
67063;SDS011;58476;48.072;11.970;2023-09-19T03:31:40;1.00;;;0.90;;
67063;SDS011;58476;48.072;11.970;2023-09-19T03:34:07;1.33;;;0.90;;
67063;SDS011;58476;48.072;11.970;2023-09-19T03:36:32;1.35;;;1.00;;
67063;SDS011;58476;48.072;11.970;2023-09-19T03:38:58;1.48;;;1.30;;
67063;SDS011;58476;48.072;11.970;2023-09-19T03:41:23;1.58;;;1.10;;
67063;SDS011;58476;48.072;11.970;2023-09-19T03:43:48;4.97;;;0.90;;
67063;SDS011;58476;48.072;11.970;2023-09-19T03:46:14;1.92;;;1.00;;
67063;SDS011;58476;48.072;11.970;2023-09-19T03:48:40;1.38;;;0.90;;
67063;SDS011;58476;48.072;11.970;2023-09-19T03:51:05;1.50;;;1.00;;
67063;SDS011;58476;48.072;11.970;2023-09-19T03:53:31;1.15;;;0.88;;
67063;SDS011;58476;48.072;11.970;2023-09-19T03:55:56;3.67;;;1.20;;
67063;SDS011;58476;48.072;11.970;2023-09-19T03:58:22;2.45;;;0.85;;
67063;SDS011;58476;48.072;11.970;2023-09-19T04:00:47;2.10;;;0.98;;
67063;SDS011;58476;48.072;11.970;2023-09-19T04:03:13;3.28;;;1.10;;
67063;SDS011;58476;48.072;11.970;2023-09-19T04:05:38;2.53;;;1.05;;
67063;SDS011;58476;48.072;11.970;2023-09-19T04:08:03;2.60;;;1.00;;
67063;SDS011;58476;48.072;11.970;2023-09-19T04:10:29;4.53;;;1.00;;
67063;SDS011;58476;48.072;11.970;2023-09-19T04:12:55;2.72;;;1.00;;
67063;SDS011;58476;48.072;11.970;2023-09-19T04:15:21;4.10;;;1.10;;
67063;SDS011;58476;48.072;11.970;2023-09-19T04:17:48;3.13;;;1.00;;
67063;SDS011;58476;48.072;11.970;2023-09-19T04:20:15;4.25;;;1.10;;
67063;SDS011;58476;48.072;11.970;2023-09-19T04:22:41;6.40;;;1.00;;
67063;SDS011;58476;48.072;11.970;2023-09-19T04:25:07;2.33;;;1.10;;
67063;SDS011;58476;48.072;11.970;2023-09-19T04:27:32;3.45;;;1.27;;
67063;SDS011;58476;48.072;11.970;2023-09-19T04:29:58;4.63;;;1.20;;
67063;SDS011;58476;48.072;11.970;2023-09-19T04:32:23;4.32;;;1.00;;
67063;SDS011;58476;48.072;11.970;2023-09-19T04:34:49;5.68;;;1.02;;
67063;SDS011;58476;48.072;11.970;2023-09-19T04:37:14;3.08;;;0.85;;
67063;SDS011;58476;48.072;11.970;2023-09-19T04:39:39;4.05;;;0.95;;
67063;SDS011;58476;48.072;11.970;2023-09-19T04:42:05;5.40;;;1.10;;
67063;SDS011;58476;48.072;11.970;2023-09-19T04:44:30;7.95;;;1.15;;
67063;SDS011;58476;48.072;11.970;2023-09-19T04:46:55;2.15;;;1.10;;
67063;SDS011;58476;48.072;11.970;2023-09-19T04:49:21;3.50;;;1.08;;
67063;SDS011;58476;48.072;11.970;2023-09-19T04:51:46;3.65;;;1.08;;
67063;SDS011;58476;48.072;11.970;2023-09-19T04:54:11;2.88;;;1.25;;
67063;SDS011;58476;48.072;11.970;2023-09-19T04:56:37;6.78;;;1.30;;
67063;SDS011;58476;48.072;11.970;2023-09-19T04:59:02;2.13;;;1.00;;
67063;SDS011;58476;48.072;11.970;2023-09-19T05:01:27;1.75;;;1.00;;
67063;SDS011;58476;48.072;11.970;2023-09-19T05:03:53;7.63;;;1.17;;
67063;SDS011;58476;48.072;11.970;2023-09-19T05:06:18;9.02;;;1.35;;
67063;SDS011;58476;48.072;11.970;2023-09-19T05:08:44;2.72;;;1.15;;
67063;SDS011;58476;48.072;11.970;2023-09-19T05:11:09;6.88;;;1.10;;
67063;SDS011;58476;48.072;11.970;2023-09-19T05:13:34;8.45;;;1.00;;
67063;SDS011;58476;48.072;11.970;2023-09-19T05:16:00;4.88;;;1.13;;
67063;SDS011;58476;48.072;11.970;2023-09-19T05:18:25;2.47;;;1.08;;
67063;SDS011;58476;48.072;11.970;2023-09-19T05:20:51;5.25;;;1.00;;
67063;SDS011;58476;48.072;11.970;2023-09-19T05:23:16;9.82;;;2.65;;
67063;SDS011;58476;48.072;11.970;2023-09-19T05:25:41;5.45;;;1.50;;
67063;SDS011;58476;48.072;11.970;2023-09-19T05:28:07;16.38;;;3.92;;
67063;SDS011;58476;48.072;11.970;2023-09-19T05:30:34;27.88;;;5.53;;
67063;SDS011;58476;48.072;11.970;2023-09-19T05:33:00;13.90;;;2.90;;
67063;SDS011;58476;48.072;11.970;2023-09-19T05:35:25;12.10;;;2.75;;
67063;SDS011;58476;48.072;11.970;2023-09-19T05:37:51;13.68;;;2.47;;
67063;SDS011;58476;48.072;11.970;2023-09-19T05:40:17;12.23;;;2.50;;
67063;SDS011;58476;48.072;11.970;2023-09-19T05:42:42;11.05;;;2.15;;
67063;SDS011;58476;48.072;11.970;2023-09-19T05:45:08;13.15;;;2.50;;
67063;SDS011;58476;48.072;11.970;2023-09-19T05:47:33;15.40;;;2.53;;
67063;SDS011;58476;48.072;11.970;2023-09-19T05:49:59;9.90;;;2.05;;
67063;SDS011;58476;48.072;11.970;2023-09-19T05:52:24;11.13;;;2.83;;
67063;SDS011;58476;48.072;11.970;2023-09-19T05:54:49;10.95;;;2.53;;
67063;SDS011;58476;48.072;11.970;2023-09-19T05:57:15;10.52;;;2.20;;
67063;SDS011;58476;48.072;11.970;2023-09-19T05:59:41;22.60;;;5.03;;
67063;SDS011;58476;48.072;11.970;2023-09-19T06:02:06;22.10;;;4.72;;
67063;SDS011;58476;48.072;11.970;2023-09-19T06:04:31;17.13;;;3.35;;
67063;SDS011;58476;48.072;11.970;2023-09-19T06:06:57;13.35;;;3.42;;
67063;SDS011;58476;48.072;11.970;2023-09-19T06:09:22;11.75;;;2.53;;
67063;SDS011;58476;48.072;11.970;2023-09-19T06:11:47;13.32;;;2.88;;
67063;SDS011;58476;48.072;11.970;2023-09-19T06:14:13;10.73;;;2.65;;
67063;SDS011;58476;48.072;11.970;2023-09-19T06:16:38;12.07;;;2.33;;
67063;SDS011;58476;48.072;11.970;2023-09-19T06:19:03;14.10;;;3.05;;
67063;SDS011;58476;48.072;11.970;2023-09-19T06:21:29;17.58;;;3.08;;
67063;SDS011;58476;48.072;11.970;2023-09-19T06:23:55;15.10;;;3.25;;
67063;SDS011;58476;48.072;11.970;2023-09-19T06:26:20;9.70;;;2.85;;
67063;SDS011;58476;48.072;11.970;2023-09-19T06:28:45;8.93;;;2.45;;
67063;SDS011;58476;48.072;11.970;2023-09-19T06:31:11;15.05;;;3.00;;
67063;SDS011;58476;48.072;11.970;2023-09-19T06:33:37;13.98;;;3.08;;
67063;SDS011;58476;48.072;11.970;2023-09-19T06:36:02;14.13;;;3.05;;
67063;SDS011;58476;48.072;11.970;2023-09-19T06:38:28;12.25;;;2.50;;
67063;SDS011;58476;48.072;11.970;2023-09-19T06:40:53;12.75;;;2.40;;
67063;SDS011;58476;48.072;11.970;2023-09-19T06:43:18;10.80;;;2.35;;
67063;SDS011;58476;48.072;11.970;2023-09-19T06:45:44;15.88;;;2.58;;
67063;SDS011;58476;48.072;11.970;2023-09-19T06:48:10;10.52;;;2.70;;
67063;SDS011;58476;48.072;11.970;2023-09-19T06:50:35;10.45;;;2.30;;
67063;SDS011;58476;48.072;11.970;2023-09-19T06:53:01;5.82;;;2.42;;
67063;SDS011;58476;48.072;11.970;2023-09-19T06:55:26;6.53;;;2.10;;
67063;SDS011;58476;48.072;11.970;2023-09-19T06:57:51;5.13;;;2.10;;
67063;SDS011;58476;48.072;11.970;2023-09-19T07:00:17;7.82;;;2.08;;
67063;SDS011;58476;48.072;11.970;2023-09-19T07:02:42;6.00;;;2.10;;
67063;SDS011;58476;48.072;11.970;2023-09-19T07:05:08;6.55;;;1.75;;
67063;SDS011;58476;48.072;11.970;2023-09-19T07:07:33;6.63;;;1.75;;
67063;SDS011;58476;48.072;11.970;2023-09-19T07:09:58;5.93;;;1.60;;
67063;SDS011;58476;48.072;11.970;2023-09-19T07:12:24;3.95;;;1.63;;
67063;SDS011;58476;48.072;11.970;2023-09-19T07:14:49;5.07;;;2.10;;
67063;SDS011;58476;48.072;11.970;2023-09-19T07:17:14;6.80;;;1.80;;
67063;SDS011;58476;48.072;11.970;2023-09-19T07:19:40;8.65;;;1.77;;
67063;SDS011;58476;48.072;11.970;2023-09-19T07:22:08;3.60;;;1.60;;
67063;SDS011;58476;48.072;11.970;2023-09-19T07:24:33;6.90;;;2.10;;
67063;SDS011;58476;48.072;11.970;2023-09-19T07:26:58;5.93;;;1.83;;
67063;SDS011;58476;48.072;11.970;2023-09-19T07:29:24;3.90;;;1.60;;
67063;SDS011;58476;48.072;11.970;2023-09-19T07:31:49;6.68;;;2.03;;
67063;SDS011;58476;48.072;11.970;2023-09-19T07:34:14;7.80;;;1.50;;
67063;SDS011;58476;48.072;11.970;2023-09-19T07:36:39;5.47;;;1.70;;
67063;SDS011;58476;48.072;11.970;2023-09-19T07:39:05;4.70;;;1.90;;
67063;SDS011;58476;48.072;11.970;2023-09-19T07:41:30;4.03;;;1.70;;
67063;SDS011;58476;48.072;11.970;2023-09-19T07:43:55;5.97;;;1.88;;
67063;SDS011;58476;48.072;11.970;2023-09-19T07:46:21;5.57;;;1.75;;
67063;SDS011;58476;48.072;11.970;2023-09-19T07:48:46;4.40;;;1.70;;
67063;SDS011;58476;48.072;11.970;2023-09-19T07:51:11;6.90;;;1.60;;
67063;SDS011;58476;48.072;11.970;2023-09-19T07:53:37;5.63;;;2.15;;
67063;SDS011;58476;48.072;11.970;2023-09-19T07:56:05;6.80;;;1.90;;
67063;SDS011;58476;48.072;11.970;2023-09-19T07:58:32;4.90;;;1.50;;
67063;SDS011;58476;48.072;11.970;2023-09-19T08:01:04;8.82;;;2.28;;
67063;SDS011;58476;48.072;11.970;2023-09-19T08:03:34;5.22;;;1.60;;
67063;SDS011;58476;48.072;11.970;2023-09-19T08:06:02;8.10;;;1.88;;
67063;SDS011;58476;48.072;11.970;2023-09-19T08:08:28;5.88;;;1.60;;
67063;SDS011;58476;48.072;11.970;2023-09-19T08:10:53;5.65;;;1.70;;
67063;SDS011;58476;48.072;11.970;2023-09-19T08:13:19;6.80;;;2.15;;
67063;SDS011;58476;48.072;11.970;2023-09-19T08:15:45;7.93;;;1.50;;
67063;SDS011;58476;48.072;11.970;2023-09-19T08:18:10;5.10;;;1.60;;
67063;SDS011;58476;48.072;11.970;2023-09-19T08:20:35;4.53;;;1.85;;
67063;SDS011;58476;48.072;11.970;2023-09-19T08:23:01;7.85;;;2.05;;
67063;SDS011;58476;48.072;11.970;2023-09-19T08:25:26;4.22;;;1.67;;
67063;SDS011;58476;48.072;11.970;2023-09-19T08:27:51;4.03;;;1.77;;
67063;SDS011;58476;48.072;11.970;2023-09-19T08:30:17;9.50;;;1.90;;
67063;SDS011;58476;48.072;11.970;2023-09-19T08:32:44;6.47;;;1.73;;
67063;SDS011;58476;48.072;11.970;2023-09-19T08:35:10;6.47;;;2.05;;
67063;SDS011;58476;48.072;11.970;2023-09-19T08:37:35;8.75;;;1.85;;
67063;SDS011;58476;48.072;11.970;2023-09-19T08:40:01;4.07;;;1.67;;
67063;SDS011;58476;48.072;11.970;2023-09-19T08:42:27;8.05;;;1.80;;
67063;SDS011;58476;48.072;11.970;2023-09-19T08:44:52;6.93;;;1.55;;
67063;SDS011;58476;48.072;11.970;2023-09-19T08:47:19;3.65;;;1.85;;
67063;SDS011;58476;48.072;11.970;2023-09-19T08:50:00;9.02;;;1.80;;
67063;SDS011;58476;48.072;11.970;2023-09-19T08:52:37;6.82;;;2.13;;
67063;SDS011;58476;48.072;11.970;2023-09-19T08:55:10;9.60;;;1.80;;
67063;SDS011;58476;48.072;11.970;2023-09-19T08:57:37;8.50;;;1.60;;
67063;SDS011;58476;48.072;11.970;2023-09-19T09:00:03;4.15;;;1.45;;
67063;SDS011;58476;48.072;11.970;2023-09-19T09:02:29;13.52;;;1.85;;
67063;SDS011;58476;48.072;11.970;2023-09-19T09:04:56;10.68;;;1.75;;
67063;SDS011;58476;48.072;11.970;2023-09-19T09:07:23;7.78;;;1.70;;
67063;SDS011;58476;48.072;11.970;2023-09-19T09:09:49;5.28;;;1.58;;
67063;SDS011;58476;48.072;11.970;2023-09-19T09:12:14;6.15;;;1.42;;
67063;SDS011;58476;48.072;11.970;2023-09-19T09:14:40;7.85;;;1.40;;
67063;SDS011;58476;48.072;11.970;2023-09-19T09:17:10;7.87;;;1.93;;
67063;SDS011;58476;48.072;11.970;2023-09-19T09:19:36;4.50;;;1.42;;
67063;SDS011;58476;48.072;11.970;2023-09-19T09:22:08;3.47;;;1.50;;
67063;SDS011;58476;48.072;11.970;2023-09-19T09:24:34;4.03;;;1.27;;
67063;SDS011;58476;48.072;11.970;2023-09-19T09:26:59;3.80;;;1.50;;
67063;SDS011;58476;48.072;11.970;2023-09-19T09:32:18;9.60;;;1.60;;
67063;SDS011;58476;48.072;11.970;2023-09-19T09:34:48;4.25;;;1.50;;
67063;SDS011;58476;48.072;11.970;2023-09-19T09:37:16;3.63;;;1.52;;
67063;SDS011;58476;48.072;11.970;2023-09-19T09:39:47;10.05;;;1.65;;
67063;SDS011;58476;48.072;11.970;2023-09-19T09:42:27;4.13;;;1.52;;
67063;SDS011;58476;48.072;11.970;2023-09-19T09:45:40;6.20;;;1.30;;
67063;SDS011;58476;48.072;11.970;2023-09-19T09:47:47;2.85;;;1.20;;
67063;SDS011;58476;48.072;11.970;2023-09-19T09:50:13;3.28;;;1.20;;
67063;SDS011;58476;48.072;11.970;2023-09-19T09:52:45;4.97;;;1.30;;
67063;SDS011;58476;48.072;11.970;2023-09-19T09:55:11;4.15;;;1.25;;
67063;SDS011;58476;48.072;11.970;2023-09-19T09:57:36;2.15;;;1.20;;
67063;SDS011;58476;48.072;11.970;2023-09-19T10:00:02;7.13;;;1.40;;
67063;SDS011;58476;48.072;11.970;2023-09-19T10:02:37;3.92;;;1.15;;
67063;SDS011;58476;48.072;11.970;2023-09-19T10:05:15;4.95;;;1.50;;
67063;SDS011;58476;48.072;11.970;2023-09-19T10:07:42;4.13;;;1.15;;
67063;SDS011;58476;48.072;11.970;2023-09-19T10:10:08;2.08;;;1.20;;
67063;SDS011;58476;48.072;11.970;2023-09-19T10:12:33;2.45;;;1.30;;
67063;SDS011;58476;48.072;11.970;2023-09-19T10:14:59;5.60;;;1.40;;
67063;SDS011;58476;48.072;11.970;2023-09-19T10:17:26;2.92;;;1.20;;
67063;SDS011;58476;48.072;11.970;2023-09-19T10:19:54;4.63;;;2.00;;
67063;SDS011;58476;48.072;11.970;2023-09-19T10:22:20;5.80;;;1.20;;
67063;SDS011;58476;48.072;11.970;2023-09-19T10:24:46;5.25;;;1.77;;
67063;SDS011;58476;48.072;11.970;2023-09-19T10:27:12;3.15;;;1.10;;
67063;SDS011;58476;48.072;11.970;2023-09-19T10:29:38;5.32;;;1.30;;
67063;SDS011;58476;48.072;11.970;2023-09-19T10:32:04;5.72;;;1.25;;
67063;SDS011;58476;48.072;11.970;2023-09-19T10:34:35;3.63;;;1.17;;
67063;SDS011;58476;48.072;11.970;2023-09-19T10:37:02;10.10;;;1.50;;
67063;SDS011;58476;48.072;11.970;2023-09-19T10:39:28;5.80;;;1.60;;
67063;SDS011;58476;48.072;11.970;2023-09-19T10:41:56;5.30;;;1.40;;
67063;SDS011;58476;48.072;11.970;2023-09-19T10:44:23;8.65;;;1.33;;
67063;SDS011;58476;48.072;11.970;2023-09-19T10:46:49;6.20;;;1.67;;
67063;SDS011;58476;48.072;11.970;2023-09-19T10:49:15;5.13;;;1.30;;
67063;SDS011;58476;48.072;11.970;2023-09-19T10:51:41;5.25;;;1.20;;
67063;SDS011;58476;48.072;11.970;2023-09-19T10:54:11;2.45;;;1.10;;
67063;SDS011;58476;48.072;11.970;2023-09-19T10:56:42;1.80;;;1.02;;
67063;SDS011;58476;48.072;11.970;2023-09-19T10:59:08;5.97;;;1.40;;
67063;SDS011;58476;48.072;11.970;2023-09-19T11:01:47;3.67;;;1.30;;
67063;SDS011;58476;48.072;11.970;2023-09-19T11:04:33;4.53;;;1.30;;
67063;SDS011;58476;48.072;11.970;2023-09-19T11:07:09;5.32;;;1.30;;
67063;SDS011;58476;48.072;11.970;2023-09-19T11:09:50;7.03;;;1.50;;
67063;SDS011;58476;48.072;11.970;2023-09-19T11:13:02;2.33;;;1.02;;
67063;SDS011;58476;48.072;11.970;2023-09-19T11:15:02;4.18;;;1.52;;
67063;SDS011;58476;48.072;11.970;2023-09-19T11:17:32;2.53;;;1.20;;
67063;SDS011;58476;48.072;11.970;2023-09-19T11:30:36;17.13;;;1.60;;
67063;SDS011;58476;48.072;11.970;2023-09-19T11:33:30;4.53;;;1.23;;
67063;SDS011;58476;48.072;11.970;2023-09-19T11:43:46;4.32;;;1.20;;
67063;SDS011;58476;48.072;11.970;2023-09-19T11:46:24;5.68;;;1.40;;
67063;SDS011;58476;48.072;11.970;2023-09-19T11:48:50;4.50;;;1.20;;
67063;SDS011;58476;48.072;11.970;2023-09-19T11:51:17;5.13;;;1.20;;
67063;SDS011;58476;48.072;11.970;2023-09-19T11:53:47;5.88;;;1.45;;
67063;SDS011;58476;48.072;11.970;2023-09-19T11:56:17;2.95;;;1.05;;
67063;SDS011;58476;48.072;11.970;2023-09-19T11:58:44;3.85;;;1.20;;
67063;SDS011;58476;48.072;11.970;2023-09-19T12:01:13;4.90;;;1.10;;
67063;SDS011;58476;48.072;11.970;2023-09-19T12:03:42;7.07;;;2.13;;
67063;SDS011;58476;48.072;11.970;2023-09-19T12:06:12;6.25;;;1.50;;
67063;SDS011;58476;48.072;11.970;2023-09-19T12:08:38;5.32;;;1.40;;
67063;SDS011;58476;48.072;11.970;2023-09-19T12:11:04;2.85;;;1.15;;
67063;SDS011;58476;48.072;11.970;2023-09-19T12:13:29;4.78;;;1.17;;
67063;SDS011;58476;48.072;11.970;2023-09-19T12:15:55;3.08;;;1.35;;
67063;SDS011;58476;48.072;11.970;2023-09-19T12:18:27;2.53;;;1.20;;
67063;SDS011;58476;48.072;11.970;2023-09-19T12:20:55;2.67;;;1.10;;
67063;SDS011;58476;48.072;11.970;2023-09-19T12:23:21;7.25;;;2.35;;
67063;SDS011;58476;48.072;11.970;2023-09-19T12:25:47;2.92;;;1.23;;
67063;SDS011;58476;48.072;11.970;2023-09-19T12:28:12;4.93;;;1.10;;
67063;SDS011;58476;48.072;11.970;2023-09-19T12:30:38;3.67;;;1.30;;
67063;SDS011;58476;48.072;11.970;2023-09-19T12:33:03;2.10;;;1.05;;
67063;SDS011;58476;48.072;11.970;2023-09-19T12:35:30;2.83;;;1.20;;
67063;SDS011;58476;48.072;11.970;2023-09-19T12:37:56;2.08;;;1.20;;
67063;SDS011;58476;48.072;11.970;2023-09-19T12:40:22;3.58;;;1.17;;
67063;SDS011;58476;48.072;11.970;2023-09-19T12:42:48;2.42;;;0.95;;
67063;SDS011;58476;48.072;11.970;2023-09-19T12:45:14;3.67;;;1.17;;
67063;SDS011;58476;48.072;11.970;2023-09-19T12:47:40;5.93;;;1.10;;
67063;SDS011;58476;48.072;11.970;2023-09-19T12:52:41;4.10;;;1.10;;
67063;SDS011;58476;48.072;11.970;2023-09-19T12:55:18;2.08;;;1.10;;
67063;SDS011;58476;48.072;11.970;2023-09-19T12:57:54;6.10;;;1.00;;
67063;SDS011;58476;48.072;11.970;2023-09-19T13:00:33;2.20;;;0.98;;
67063;SDS011;58476;48.072;11.970;2023-09-19T13:05:55;3.67;;;1.38;;
67063;SDS011;58476;48.072;11.970;2023-09-19T13:08:28;7.80;;;1.05;;
67063;SDS011;58476;48.072;11.970;2023-09-19T13:13:30;3.42;;;1.05;;
67063;SDS011;58476;48.072;11.970;2023-09-19T13:15:55;5.30;;;0.93;;
67063;SDS011;58476;48.072;11.970;2023-09-19T13:18:21;2.28;;;0.82;;
67063;SDS011;58476;48.072;11.970;2023-09-19T13:21:05;6.65;;;1.15;;
67063;SDS011;58476;48.072;11.970;2023-09-19T13:23:34;3.30;;;1.00;;
67063;SDS011;58476;48.072;11.970;2023-09-19T13:25:59;3.75;;;1.52;;
67063;SDS011;58476;48.072;11.970;2023-09-19T13:28:25;2.65;;;1.10;;
67063;SDS011;58476;48.072;11.970;2023-09-19T13:30:50;1.35;;;0.73;;
67063;SDS011;58476;48.072;11.970;2023-09-19T13:33:15;2.53;;;0.93;;
67063;SDS011;58476;48.072;11.970;2023-09-19T13:35:41;2.85;;;0.93;;
67063;SDS011;58476;48.072;11.970;2023-09-19T13:38:06;4.15;;;1.27;;
67063;SDS011;58476;48.072;11.970;2023-09-19T13:40:32;12.65;;;1.45;;
67063;SDS011;58476;48.072;11.970;2023-09-19T13:42:57;10.05;;;1.30;;
67063;SDS011;58476;48.072;11.970;2023-09-19T13:45:22;7.93;;;1.40;;
67063;SDS011;58476;48.072;11.970;2023-09-19T13:47:48;12.23;;;1.40;;
67063;SDS011;58476;48.072;11.970;2023-09-19T13:50:13;8.60;;;2.20;;
67063;SDS011;58476;48.072;11.970;2023-09-19T13:52:39;10.98;;;1.40;;
67063;SDS011;58476;48.072;11.970;2023-09-19T13:55:05;6.38;;;1.40;;
67063;SDS011;58476;48.072;11.970;2023-09-19T13:57:30;9.90;;;1.50;;
67063;SDS011;58476;48.072;11.970;2023-09-19T13:59:56;8.80;;;1.67;;
67063;SDS011;58476;48.072;11.970;2023-09-19T14:02:21;10.30;;;1.60;;
67063;SDS011;58476;48.072;11.970;2023-09-19T14:04:47;8.43;;;1.63;;
67063;SDS011;58476;48.072;11.970;2023-09-19T14:07:13;8.73;;;1.50;;
67063;SDS011;58476;48.072;11.970;2023-09-19T14:09:38;10.07;;;1.30;;
67063;SDS011;58476;48.072;11.970;2023-09-19T14:12:03;5.45;;;1.40;;
67063;SDS011;58476;48.072;11.970;2023-09-19T14:14:29;10.00;;;1.77;;
67063;SDS011;58476;48.072;11.970;2023-09-19T14:16:54;5.95;;;1.42;;
67063;SDS011;58476;48.072;11.970;2023-09-19T14:19:20;6.80;;;1.20;;
67063;SDS011;58476;48.072;11.970;2023-09-19T14:21:45;6.63;;;1.50;;
67063;SDS011;58476;48.072;11.970;2023-09-19T14:24:13;10.45;;;1.38;;
67063;SDS011;58476;48.072;11.970;2023-09-19T14:26:41;8.98;;;1.42;;
67063;SDS011;58476;48.072;11.970;2023-09-19T14:29:07;8.07;;;1.73;;
67063;SDS011;58476;48.072;11.970;2023-09-19T14:31:32;6.35;;;1.30;;
67063;SDS011;58476;48.072;11.970;2023-09-19T14:33:58;9.10;;;1.70;;
67063;SDS011;58476;48.072;11.970;2023-09-19T14:36:23;11.25;;;1.58;;
67063;SDS011;58476;48.072;11.970;2023-09-19T14:38:51;12.20;;;1.63;;
67063;SDS011;58476;48.072;11.970;2023-09-19T14:41:18;12.73;;;2.00;;
67063;SDS011;58476;48.072;11.970;2023-09-19T14:43:43;9.13;;;1.40;;
67063;SDS011;58476;48.072;11.970;2023-09-19T14:46:08;8.30;;;1.60;;
67063;SDS011;58476;48.072;11.970;2023-09-19T14:48:34;8.27;;;1.30;;
67063;SDS011;58476;48.072;11.970;2023-09-19T14:51:08;11.07;;;1.48;;
67063;SDS011;58476;48.072;11.970;2023-09-19T14:53:34;19.13;;;1.92;;
67063;SDS011;58476;48.072;11.970;2023-09-19T14:56:01;9.07;;;1.40;;
67063;SDS011;58476;48.072;11.970;2023-09-19T14:58:27;8.90;;;1.90;;
67063;SDS011;58476;48.072;11.970;2023-09-19T15:00:52;9.50;;;1.45;;
67063;SDS011;58476;48.072;11.970;2023-09-19T15:03:17;19.48;;;1.80;;
67063;SDS011;58476;48.072;11.970;2023-09-19T15:05:43;8.77;;;1.80;;
67063;SDS011;58476;48.072;11.970;2023-09-19T15:08:08;9.35;;;1.80;;
67063;SDS011;58476;48.072;11.970;2023-09-19T15:10:34;10.82;;;1.70;;
67063;SDS011;58476;48.072;11.970;2023-09-19T15:12:59;12.55;;;1.65;;
67063;SDS011;58476;48.072;11.970;2023-09-19T15:15:24;13.88;;;1.92;;
67063;SDS011;58476;48.072;11.970;2023-09-19T15:17:50;7.63;;;1.48;;